sensor_id;sensor_type;location;lat;lon;timestamp;temperature;humidity
5578;DHT22;2811;51.900;10.734;2023-08-08T00:02:02;13.80;99.90
5578;DHT22;2811;51.900;10.734;2023-08-08T00:04:28;13.70;99.90
5578;DHT22;2811;51.900;10.734;2023-08-08T00:06:55;13.70;99.90
5578;DHT22;2811;51.900;10.734;2023-08-08T00:09:23;13.70;99.90
5578;DHT22;2811;51.900;10.734;2023-08-08T00:11:50;13.60;99.90
5578;DHT22;2811;51.900;10.734;2023-08-08T00:14:17;13.70;99.90
5578;DHT22;2811;51.900;10.734;2023-08-08T00:16:43;13.70;99.90
5578;DHT22;2811;51.900;10.734;2023-08-08T00:19:10;13.70;99.90
5578;DHT22;2811;51.900;10.734;2023-08-08T00:21:37;13.70;99.90
5578;DHT22;2811;51.900;10.734;2023-08-08T00:24:04;13.80;99.90
5578;DHT22;2811;51.900;10.734;2023-08-08T00:26:32;13.70;99.90
5578;DHT22;2811;51.900;10.734;2023-08-08T00:28:59;13.80;99.90
5578;DHT22;2811;51.900;10.734;2023-08-08T00:31:25;13.80;99.90
5578;DHT22;2811;51.900;10.734;2023-08-08T00:33:52;13.80;99.90
5578;DHT22;2811;51.900;10.734;2023-08-08T00:36:18;13.80;99.90
5578;DHT22;2811;51.900;10.734;2023-08-08T00:38:45;13.80;99.90
5578;DHT22;2811;51.900;10.734;2023-08-08T00:41:12;13.80;99.90
5578;DHT22;2811;51.900;10.734;2023-08-08T00:43:40;13.80;99.90
5578;DHT22;2811;51.900;10.734;2023-08-08T00:46:08;14.00;99.90
5578;DHT22;2811;51.900;10.734;2023-08-08T00:48:35;13.80;99.90
5578;DHT22;2811;51.900;10.734;2023-08-08T00:51:02;13.80;99.90
5578;DHT22;2811;51.900;10.734;2023-08-08T00:53:30;13.80;99.90
5578;DHT22;2811;51.900;10.734;2023-08-08T00:55:58;13.80;99.90
5578;DHT22;2811;51.900;10.734;2023-08-08T00:58:25;13.80;99.90
5578;DHT22;2811;51.900;10.734;2023-08-08T01:00:54;13.80;99.90
5578;DHT22;2811;51.900;10.734;2023-08-08T01:03:25;13.80;99.90
5578;DHT22;2811;51.900;10.734;2023-08-08T01:05:58;13.80;99.90
5578;DHT22;2811;51.900;10.734;2023-08-08T01:08:33;13.90;99.90
5578;DHT22;2811;51.900;10.734;2023-08-08T01:11:02;13.90;99.90
5578;DHT22;2811;51.900;10.734;2023-08-08T01:13:30;13.90;99.90
5578;DHT22;2811;51.900;10.734;2023-08-08T01:15:59;13.80;99.90
5578;DHT22;2811;51.900;10.734;2023-08-08T01:18:27;13.90;99.90
5578;DHT22;2811;51.900;10.734;2023-08-08T01:20:54;13.80;99.90
5578;DHT22;2811;51.900;10.734;2023-08-08T01:23:26;13.90;99.90
5578;DHT22;2811;51.900;10.734;2023-08-08T01:25:56;13.80;99.90
5578;DHT22;2811;51.900;10.734;2023-08-08T01:28:24;13.80;99.90
5578;DHT22;2811;51.900;10.734;2023-08-08T01:30:51;13.80;99.90
5578;DHT22;2811;51.900;10.734;2023-08-08T01:33:19;13.80;99.90
5578;DHT22;2811;51.900;10.734;2023-08-08T01:35:50;13.80;99.90
5578;DHT22;2811;51.900;10.734;2023-08-08T01:38:23;13.80;99.90
5578;DHT22;2811;51.900;10.734;2023-08-08T01:40:56;13.80;99.90
5578;DHT22;2811;51.900;10.734;2023-08-08T01:43:24;13.80;99.90
5578;DHT22;2811;51.900;10.734;2023-08-08T01:45:51;13.80;99.90
5578;DHT22;2811;51.900;10.734;2023-08-08T01:48:18;13.80;99.90
5578;DHT22;2811;51.900;10.734;2023-08-08T01:50:45;13.80;99.90
5578;DHT22;2811;51.900;10.734;2023-08-08T01:53:12;13.80;99.90
5578;DHT22;2811;51.900;10.734;2023-08-08T01:55:38;13.80;99.90
5578;DHT22;2811;51.900;10.734;2023-08-08T01:58:06;13.70;99.90
5578;DHT22;2811;51.900;10.734;2023-08-08T02:00:33;13.80;99.90
5578;DHT22;2811;51.900;10.734;2023-08-08T02:03:00;13.80;99.90
5578;DHT22;2811;51.900;10.734;2023-08-08T02:05:27;13.80;99.90
5578;DHT22;2811;51.900;10.734;2023-08-08T02:07:54;13.80;99.90
5578;DHT22;2811;51.900;10.734;2023-08-08T02:10:21;13.80;99.90
5578;DHT22;2811;51.900;10.734;2023-08-08T02:12:47;13.80;99.90
5578;DHT22;2811;51.900;10.734;2023-08-08T02:15:15;13.80;99.90
5578;DHT22;2811;51.900;10.734;2023-08-08T02:17:42;13.80;99.90
5578;DHT22;2811;51.900;10.734;2023-08-08T02:20:09;13.80;99.90
5578;DHT22;2811;51.900;10.734;2023-08-08T02:22:37;13.90;99.90
5578;DHT22;2811;51.900;10.734;2023-08-08T02:25:04;13.90;99.90
5578;DHT22;2811;51.900;10.734;2023-08-08T02:27:31;13.90;99.90
5578;DHT22;2811;51.900;10.734;2023-08-08T02:29:58;13.80;99.90
5578;DHT22;2811;51.900;10.734;2023-08-08T02:32:26;13.90;99.90
5578;DHT22;2811;51.900;10.734;2023-08-08T02:34:52;13.80;99.90
5578;DHT22;2811;51.900;10.734;2023-08-08T02:37:19;13.90;99.90
5578;DHT22;2811;51.900;10.734;2023-08-08T02:39:45;13.80;99.90
5578;DHT22;2811;51.900;10.734;2023-08-08T02:42:12;13.80;99.90
5578;DHT22;2811;51.900;10.734;2023-08-08T02:44:39;13.80;99.90
5578;DHT22;2811;51.900;10.734;2023-08-08T02:47:06;13.90;99.90
5578;DHT22;2811;51.900;10.734;2023-08-08T02:49:34;13.80;99.90
5578;DHT22;2811;51.900;10.734;2023-08-08T02:52:01;13.80;99.90
5578;DHT22;2811;51.900;10.734;2023-08-08T02:54:27;13.80;99.90
5578;DHT22;2811;51.900;10.734;2023-08-08T02:56:54;13.90;99.90
5578;DHT22;2811;51.900;10.734;2023-08-08T02:59:21;13.80;99.90
5578;DHT22;2811;51.900;10.734;2023-08-08T03:01:47;13.80;99.90
5578;DHT22;2811;51.900;10.734;2023-08-08T03:04:14;13.80;99.90
5578;DHT22;2811;51.900;10.734;2023-08-08T03:06:42;13.70;99.90
5578;DHT22;2811;51.900;10.734;2023-08-08T03:09:09;13.70;99.90
5578;DHT22;2811;51.900;10.734;2023-08-08T03:11:36;13.70;99.90
5578;DHT22;2811;51.900;10.734;2023-08-08T03:14:02;13.70;99.90
5578;DHT22;2811;51.900;10.734;2023-08-08T03:16:29;13.70;99.90
5578;DHT22;2811;51.900;10.734;2023-08-08T03:18:56;13.80;99.90
5578;DHT22;2811;51.900;10.734;2023-08-08T03:21:24;13.80;99.90
5578;DHT22;2811;51.900;10.734;2023-08-08T03:23:52;13.80;99.90
5578;DHT22;2811;51.900;10.734;2023-08-08T03:26:18;13.80;99.90
5578;DHT22;2811;51.900;10.734;2023-08-08T03:28:45;13.90;99.90
5578;DHT22;2811;51.900;10.734;2023-08-08T03:31:15;14.00;99.90
5578;DHT22;2811;51.900;10.734;2023-08-08T03:33:44;14.00;99.90
5578;DHT22;2811;51.900;10.734;2023-08-08T03:36:11;14.10;99.90
5578;DHT22;2811;51.900;10.734;2023-08-08T03:38:38;14.10;99.90
5578;DHT22;2811;51.900;10.734;2023-08-08T03:41:06;14.20;99.90
5578;DHT22;2811;51.900;10.734;2023-08-08T03:43:33;14.20;99.90
5578;DHT22;2811;51.900;10.734;2023-08-08T03:46:00;14.30;99.90
5578;DHT22;2811;51.900;10.734;2023-08-08T03:48:26;14.20;99.90
5578;DHT22;2811;51.900;10.734;2023-08-08T03:50:53;14.20;99.90
5578;DHT22;2811;51.900;10.734;2023-08-08T03:53:20;14.20;99.90
5578;DHT22;2811;51.900;10.734;2023-08-08T03:55:46;14.10;99.90
5578;DHT22;2811;51.900;10.734;2023-08-08T03:58:14;14.10;99.90
5578;DHT22;2811;51.900;10.734;2023-08-08T04:00:42;14.10;99.90
5578;DHT22;2811;51.900;10.734;2023-08-08T04:03:12;14.10;99.90
5578;DHT22;2811;51.900;10.734;2023-08-08T04:05:39;14.10;99.90
5578;DHT22;2811;51.900;10.734;2023-08-08T04:08:06;14.20;99.90
5578;DHT22;2811;51.900;10.734;2023-08-08T04:10:33;14.10;99.90
5578;DHT22;2811;51.900;10.734;2023-08-08T04:12:59;14.10;99.90
5578;DHT22;2811;51.900;10.734;2023-08-08T04:15:27;14.10;99.90
5578;DHT22;2811;51.900;10.734;2023-08-08T04:17:54;14.20;99.90
5578;DHT22;2811;51.900;10.734;2023-08-08T04:20:21;14.20;99.90
5578;DHT22;2811;51.900;10.734;2023-08-08T04:22:48;14.20;99.90
5578;DHT22;2811;51.900;10.734;2023-08-08T04:25:15;14.10;99.90
5578;DHT22;2811;51.900;10.734;2023-08-08T04:27:42;14.10;99.90
5578;DHT22;2811;51.900;10.734;2023-08-08T04:30:09;14.10;99.90
5578;DHT22;2811;51.900;10.734;2023-08-08T04:32:37;14.20;99.90
5578;DHT22;2811;51.900;10.734;2023-08-08T04:35:04;14.20;99.90
5578;DHT22;2811;51.900;10.734;2023-08-08T04:37:31;14.20;99.90
5578;DHT22;2811;51.900;10.734;2023-08-08T04:39:57;14.30;99.90
5578;DHT22;2811;51.900;10.734;2023-08-08T04:42:24;14.30;99.90
5578;DHT22;2811;51.900;10.734;2023-08-08T04:44:51;14.20;99.90
5578;DHT22;2811;51.900;10.734;2023-08-08T04:47:17;14.20;99.90
5578;DHT22;2811;51.900;10.734;2023-08-08T04:49:45;14.20;99.90
5578;DHT22;2811;51.900;10.734;2023-08-08T04:52:12;14.30;99.90
5578;DHT22;2811;51.900;10.734;2023-08-08T04:54:38;14.10;99.90
5578;DHT22;2811;51.900;10.734;2023-08-08T04:57:06;14.20;99.90
5578;DHT22;2811;51.900;10.734;2023-08-08T04:59:32;14.10;99.90
5578;DHT22;2811;51.900;10.734;2023-08-08T05:01:59;14.10;99.90
5578;DHT22;2811;51.900;10.734;2023-08-08T05:04:26;14.30;99.90
5578;DHT22;2811;51.900;10.734;2023-08-08T05:06:54;14.20;99.90
5578;DHT22;2811;51.900;10.734;2023-08-08T05:09:20;14.20;99.90
5578;DHT22;2811;51.900;10.734;2023-08-08T05:11:51;14.10;99.90
5578;DHT22;2811;51.900;10.734;2023-08-08T05:14:18;14.20;99.90
5578;DHT22;2811;51.900;10.734;2023-08-08T05:16:45;14.10;99.90
5578;DHT22;2811;51.900;10.734;2023-08-08T05:19:12;14.10;99.90
5578;DHT22;2811;51.900;10.734;2023-08-08T05:21:39;14.10;99.90
5578;DHT22;2811;51.900;10.734;2023-08-08T05:24:07;14.30;99.90
5578;DHT22;2811;51.900;10.734;2023-08-08T05:26:33;14.40;99.90
5578;DHT22;2811;51.900;10.734;2023-08-08T05:29:00;14.30;99.90
5578;DHT22;2811;51.900;10.734;2023-08-08T05:31:27;14.30;99.90
5578;DHT22;2811;51.900;10.734;2023-08-08T05:33:54;14.50;99.90
5578;DHT22;2811;51.900;10.734;2023-08-08T05:36:21;14.80;99.90
5578;DHT22;2811;51.900;10.734;2023-08-08T05:38:47;14.90;99.90
5578;DHT22;2811;51.900;10.734;2023-08-08T05:41:15;15.00;99.90
5578;DHT22;2811;51.900;10.734;2023-08-08T05:43:42;15.00;99.90
5578;DHT22;2811;51.900;10.734;2023-08-08T05:46:09;15.10;99.90
5578;DHT22;2811;51.900;10.734;2023-08-08T05:48:35;15.30;99.90
5578;DHT22;2811;51.900;10.734;2023-08-08T05:51:02;15.30;99.90
5578;DHT22;2811;51.900;10.734;2023-08-08T05:53:30;15.20;99.90
5578;DHT22;2811;51.900;10.734;2023-08-08T05:55:57;15.30;99.90
5578;DHT22;2811;51.900;10.734;2023-08-08T05:58:25;15.30;99.90
5578;DHT22;2811;51.900;10.734;2023-08-08T06:00:52;15.40;99.90
5578;DHT22;2811;51.900;10.734;2023-08-08T06:03:19;15.40;99.90
5578;DHT22;2811;51.900;10.734;2023-08-08T06:05:45;15.30;99.90
5578;DHT22;2811;51.900;10.734;2023-08-08T06:08:12;15.30;99.90
5578;DHT22;2811;51.900;10.734;2023-08-08T06:10:41;15.30;99.90
5578;DHT22;2811;51.900;10.734;2023-08-08T06:13:08;15.40;99.90
5578;DHT22;2811;51.900;10.734;2023-08-08T06:15:36;15.50;99.90
5578;DHT22;2811;51.900;10.734;2023-08-08T06:18:02;15.50;99.90
5578;DHT22;2811;51.900;10.734;2023-08-08T06:20:30;15.50;99.90
5578;DHT22;2811;51.900;10.734;2023-08-08T06:22:56;15.60;99.90
5578;DHT22;2811;51.900;10.734;2023-08-08T06:25:23;15.60;99.90
5578;DHT22;2811;51.900;10.734;2023-08-08T06:27:50;15.60;99.90
5578;DHT22;2811;51.900;10.734;2023-08-08T06:30:16;15.50;99.90
5578;DHT22;2811;51.900;10.734;2023-08-08T06:32:44;15.40;99.90
5578;DHT22;2811;51.900;10.734;2023-08-08T06:35:11;15.70;99.90
5578;DHT22;2811;51.900;10.734;2023-08-08T06:37:38;15.50;99.90
5578;DHT22;2811;51.900;10.734;2023-08-08T06:40:06;15.60;99.90
5578;DHT22;2811;51.900;10.734;2023-08-08T06:42:33;15.80;99.90
5578;DHT22;2811;51.900;10.734;2023-08-08T06:45:00;15.80;99.90
5578;DHT22;2811;51.900;10.734;2023-08-08T06:47:27;15.80;99.90
5578;DHT22;2811;51.900;10.734;2023-08-08T06:49:55;16.00;99.90
5578;DHT22;2811;51.900;10.734;2023-08-08T06:52:22;16.10;99.90
5578;DHT22;2811;51.900;10.734;2023-08-08T06:54:48;16.20;99.90
5578;DHT22;2811;51.900;10.734;2023-08-08T06:57:15;16.00;99.90
5578;DHT22;2811;51.900;10.734;2023-08-08T06:59:42;16.00;99.90
5578;DHT22;2811;51.900;10.734;2023-08-08T07:02:08;16.10;99.90
5578;DHT22;2811;51.900;10.734;2023-08-08T07:04:35;16.10;99.90
5578;DHT22;2811;51.900;10.734;2023-08-08T07:07:03;16.00;99.90
5578;DHT22;2811;51.900;10.734;2023-08-08T07:09:30;15.90;99.90
5578;DHT22;2811;51.900;10.734;2023-08-08T07:11:58;16.10;99.90
5578;DHT22;2811;51.900;10.734;2023-08-08T07:14:25;16.10;99.90
5578;DHT22;2811;51.900;10.734;2023-08-08T07:16:51;16.10;99.90
5578;DHT22;2811;51.900;10.734;2023-08-08T07:19:18;16.20;99.90
5578;DHT22;2811;51.900;10.734;2023-08-08T07:21:45;16.10;99.90
5578;DHT22;2811;51.900;10.734;2023-08-08T07:24:13;16.10;99.90
5578;DHT22;2811;51.900;10.734;2023-08-08T07:26:40;16.20;99.90
5578;DHT22;2811;51.900;10.734;2023-08-08T07:29:06;16.50;99.90
5578;DHT22;2811;51.900;10.734;2023-08-08T07:31:33;16.70;99.90
5578;DHT22;2811;51.900;10.734;2023-08-08T07:34:00;16.80;99.90
5578;DHT22;2811;51.900;10.734;2023-08-08T07:36:27;16.60;99.90
5578;DHT22;2811;51.900;10.734;2023-08-08T07:38:53;16.60;99.90
5578;DHT22;2811;51.900;10.734;2023-08-08T07:41:25;16.70;99.90
5578;DHT22;2811;51.900;10.734;2023-08-08T07:43:52;17.00;99.90
5578;DHT22;2811;51.900;10.734;2023-08-08T07:46:19;17.00;99.90
5578;DHT22;2811;51.900;10.734;2023-08-08T07:48:46;17.10;99.90
5578;DHT22;2811;51.900;10.734;2023-08-08T07:51:12;17.40;99.90
5578;DHT22;2811;51.900;10.734;2023-08-08T07:53:39;17.50;99.90
5578;DHT22;2811;51.900;10.734;2023-08-08T07:56:06;17.30;99.90
5578;DHT22;2811;51.900;10.734;2023-08-08T07:58:34;17.10;99.90
5578;DHT22;2811;51.900;10.734;2023-08-08T08:01:00;17.00;99.90
5578;DHT22;2811;51.900;10.734;2023-08-08T08:03:27;17.10;99.90
5578;DHT22;2811;51.900;10.734;2023-08-08T08:05:54;17.30;99.90
5578;DHT22;2811;51.900;10.734;2023-08-08T08:08:20;17.60;99.90
5578;DHT22;2811;51.900;10.734;2023-08-08T08:10:47;18.10;99.90
5578;DHT22;2811;51.900;10.734;2023-08-08T08:13:14;18.50;99.90
5578;DHT22;2811;51.900;10.734;2023-08-08T08:15:42;18.70;99.90
5578;DHT22;2811;51.900;10.734;2023-08-08T08:18:09;18.80;99.90
5578;DHT22;2811;51.900;10.734;2023-08-08T08:20:37;18.70;99.90
5578;DHT22;2811;51.900;10.734;2023-08-08T08:23:04;18.50;99.90
5578;DHT22;2811;51.900;10.734;2023-08-08T08:25:31;18.60;99.90
5578;DHT22;2811;51.900;10.734;2023-08-08T08:27:58;18.70;99.90
5578;DHT22;2811;51.900;10.734;2023-08-08T08:30:25;19.20;99.90
5578;DHT22;2811;51.900;10.734;2023-08-08T08:32:53;19.10;99.90
5578;DHT22;2811;51.900;10.734;2023-08-08T08:35:20;19.10;99.90
5578;DHT22;2811;51.900;10.734;2023-08-08T08:37:47;19.10;99.90
5578;DHT22;2811;51.900;10.734;2023-08-08T08:40:13;19.10;99.90
5578;DHT22;2811;51.900;10.734;2023-08-08T08:42:40;19.00;99.90
5578;DHT22;2811;51.900;10.734;2023-08-08T08:45:09;19.30;99.90
5578;DHT22;2811;51.900;10.734;2023-08-08T08:47:36;19.60;99.90
5578;DHT22;2811;51.900;10.734;2023-08-08T08:50:06;19.90;99.90
5578;DHT22;2811;51.900;10.734;2023-08-08T08:52:33;19.50;99.90
5578;DHT22;2811;51.900;10.734;2023-08-08T08:55:00;19.80;99.90
5578;DHT22;2811;51.900;10.734;2023-08-08T08:57:28;20.00;99.90
5578;DHT22;2811;51.900;10.734;2023-08-08T08:59:55;20.20;99.90
5578;DHT22;2811;51.900;10.734;2023-08-08T09:02:23;20.10;99.90
5578;DHT22;2811;51.900;10.734;2023-08-08T09:04:50;19.90;99.90
5578;DHT22;2811;51.900;10.734;2023-08-08T09:07:20;19.70;99.90
5578;DHT22;2811;51.900;10.734;2023-08-08T09:09:50;19.80;99.90
5578;DHT22;2811;51.900;10.734;2023-08-08T09:12:17;20.00;99.90
5578;DHT22;2811;51.900;10.734;2023-08-08T09:14:44;20.00;99.90
5578;DHT22;2811;51.900;10.734;2023-08-08T09:17:12;19.70;99.90
5578;DHT22;2811;51.900;10.734;2023-08-08T09:19:41;19.80;99.90
5578;DHT22;2811;51.900;10.734;2023-08-08T09:22:08;19.90;99.90
5578;DHT22;2811;51.900;10.734;2023-08-08T09:24:39;19.80;99.90
5578;DHT22;2811;51.900;10.734;2023-08-08T09:27:06;20.10;99.90
5578;DHT22;2811;51.900;10.734;2023-08-08T09:29:33;19.90;99.90
5578;DHT22;2811;51.900;10.734;2023-08-08T09:32:02;19.90;99.90
5578;DHT22;2811;51.900;10.734;2023-08-08T09:34:29;19.70;99.90
5578;DHT22;2811;51.900;10.734;2023-08-08T09:36:56;19.70;99.90
5578;DHT22;2811;51.900;10.734;2023-08-08T09:39:22;19.30;99.90
5578;DHT22;2811;51.900;10.734;2023-08-08T09:41:51;19.10;99.90
5578;DHT22;2811;51.900;10.734;2023-08-08T09:44:17;18.80;99.90
5578;DHT22;2811;51.900;10.734;2023-08-08T09:46:43;18.80;99.90
5578;DHT22;2811;51.900;10.734;2023-08-08T09:49:10;18.40;99.90
5578;DHT22;2811;51.900;10.734;2023-08-08T09:51:37;18.60;99.90
5578;DHT22;2811;51.900;10.734;2023-08-08T09:54:04;18.80;99.90
5578;DHT22;2811;51.900;10.734;2023-08-08T09:56:33;18.80;99.90
5578;DHT22;2811;51.900;10.734;2023-08-08T09:59:02;19.00;99.90
5578;DHT22;2811;51.900;10.734;2023-08-08T10:01:31;19.00;99.90
5578;DHT22;2811;51.900;10.734;2023-08-08T10:03:58;18.70;99.90
5578;DHT22;2811;51.900;10.734;2023-08-08T10:06:26;18.80;99.90
5578;DHT22;2811;51.900;10.734;2023-08-08T10:08:53;19.20;99.90
5578;DHT22;2811;51.900;10.734;2023-08-08T10:11:21;19.50;99.90
5578;DHT22;2811;51.900;10.734;2023-08-08T10:13:50;19.60;99.90
5578;DHT22;2811;51.900;10.734;2023-08-08T10:16:18;19.80;99.90
5578;DHT22;2811;51.900;10.734;2023-08-08T10:18:46;19.80;99.90
5578;DHT22;2811;51.900;10.734;2023-08-08T10:21:22;19.90;99.90
5578;DHT22;2811;51.900;10.734;2023-08-08T10:23:49;20.20;99.90
5578;DHT22;2811;51.900;10.734;2023-08-08T10:26:18;20.10;99.90
5578;DHT22;2811;51.900;10.734;2023-08-08T10:28:53;20.10;99.90
5578;DHT22;2811;51.900;10.734;2023-08-08T10:31:22;20.40;99.90
5578;DHT22;2811;51.900;10.734;2023-08-08T10:33:49;20.60;99.90
5578;DHT22;2811;51.900;10.734;2023-08-08T10:36:16;20.70;99.90
5578;DHT22;2811;51.900;10.734;2023-08-08T10:38:44;20.70;99.90
5578;DHT22;2811;51.900;10.734;2023-08-08T10:41:14;20.30;99.90
5578;DHT22;2811;51.900;10.734;2023-08-08T10:43:48;20.80;99.90
5578;DHT22;2811;51.900;10.734;2023-08-08T10:46:24;21.10;99.90
5578;DHT22;2811;51.900;10.734;2023-08-08T10:48:51;21.40;99.90
5578;DHT22;2811;51.900;10.734;2023-08-08T10:51:18;21.70;99.90
5578;DHT22;2811;51.900;10.734;2023-08-08T10:53:46;21.10;99.90
5578;DHT22;2811;51.900;10.734;2023-08-08T10:56:13;20.70;99.90
5578;DHT22;2811;51.900;10.734;2023-08-08T10:58:42;20.20;99.90
5578;DHT22;2811;51.900;10.734;2023-08-08T11:01:08;19.80;99.90
5578;DHT22;2811;51.900;10.734;2023-08-08T11:03:40;19.60;99.90
5578;DHT22;2811;51.900;10.734;2023-08-08T11:06:08;19.50;99.90
5578;DHT22;2811;51.900;10.734;2023-08-08T11:08:35;19.60;99.90
5578;DHT22;2811;51.900;10.734;2023-08-08T11:11:04;20.10;99.90
5578;DHT22;2811;51.900;10.734;2023-08-08T11:13:31;20.00;99.90
5578;DHT22;2811;51.900;10.734;2023-08-08T11:15:58;20.30;99.90
5578;DHT22;2811;51.900;10.734;2023-08-08T11:18:27;20.80;99.90
5578;DHT22;2811;51.900;10.734;2023-08-08T11:20:55;21.20;99.90
5578;DHT22;2811;51.900;10.734;2023-08-08T11:23:22;21.10;99.90
5578;DHT22;2811;51.900;10.734;2023-08-08T11:25:48;21.00;99.90
5578;DHT22;2811;51.900;10.734;2023-08-08T11:28:16;20.90;99.90
5578;DHT22;2811;51.900;10.734;2023-08-08T11:30:45;20.10;99.90
5578;DHT22;2811;51.900;10.734;2023-08-08T11:33:13;19.80;99.90
5578;DHT22;2811;51.900;10.734;2023-08-08T11:35:43;19.40;99.90
5578;DHT22;2811;51.900;10.734;2023-08-08T11:38:13;19.40;99.90
5578;DHT22;2811;51.900;10.734;2023-08-08T11:40:40;19.40;99.90
5578;DHT22;2811;51.900;10.734;2023-08-08T11:43:07;19.70;99.90
5578;DHT22;2811;51.900;10.734;2023-08-08T11:45:34;19.50;99.90
5578;DHT22;2811;51.900;10.734;2023-08-08T11:48:02;19.60;99.90
5578;DHT22;2811;51.900;10.734;2023-08-08T11:50:29;19.60;99.90
5578;DHT22;2811;51.900;10.734;2023-08-08T11:52:56;19.60;99.90
5578;DHT22;2811;51.900;10.734;2023-08-08T11:55:28;19.40;99.90
5578;DHT22;2811;51.900;10.734;2023-08-08T11:57:56;19.30;99.90
5578;DHT22;2811;51.900;10.734;2023-08-08T12:00:27;19.20;99.90
5578;DHT22;2811;51.900;10.734;2023-08-08T12:02:55;19.30;99.90
5578;DHT22;2811;51.900;10.734;2023-08-08T12:05:22;19.70;99.90
5578;DHT22;2811;51.900;10.734;2023-08-08T12:07:50;19.80;99.90
5578;DHT22;2811;51.900;10.734;2023-08-08T12:10:18;19.80;99.90
5578;DHT22;2811;51.900;10.734;2023-08-08T12:12:52;20.00;99.90
5578;DHT22;2811;51.900;10.734;2023-08-08T12:15:20;20.10;99.90
5578;DHT22;2811;51.900;10.734;2023-08-08T12:17:46;20.20;99.90
5578;DHT22;2811;51.900;10.734;2023-08-08T12:20:15;20.30;99.90
5578;DHT22;2811;51.900;10.734;2023-08-08T12:22:42;20.40;99.90
5578;DHT22;2811;51.900;10.734;2023-08-08T12:25:08;20.50;99.90
5578;DHT22;2811;51.900;10.734;2023-08-08T12:27:35;20.50;99.90
5578;DHT22;2811;51.900;10.734;2023-08-08T12:30:05;20.60;99.90
5578;DHT22;2811;51.900;10.734;2023-08-08T12:32:32;20.50;99.90
5578;DHT22;2811;51.900;10.734;2023-08-08T12:34:58;20.50;99.90
5578;DHT22;2811;51.900;10.734;2023-08-08T12:37:25;20.80;99.90
5578;DHT22;2811;51.900;10.734;2023-08-08T12:39:52;20.90;99.90
5578;DHT22;2811;51.900;10.734;2023-08-08T12:42:18;21.00;99.90
5578;DHT22;2811;51.900;10.734;2023-08-08T12:44:45;21.10;99.90
5578;DHT22;2811;51.900;10.734;2023-08-08T12:47:17;21.20;99.90
5578;DHT22;2811;51.900;10.734;2023-08-08T12:49:44;21.10;99.90
5578;DHT22;2811;51.900;10.734;2023-08-08T12:52:11;20.90;99.90
5578;DHT22;2811;51.900;10.734;2023-08-08T12:54:38;21.00;99.90
5578;DHT22;2811;51.900;10.734;2023-08-08T12:57:05;21.20;99.90
5578;DHT22;2811;51.900;10.734;2023-08-08T12:59:31;21.30;99.90
5578;DHT22;2811;51.900;10.734;2023-08-08T13:01:58;21.50;99.90
5578;DHT22;2811;51.900;10.734;2023-08-08T13:04:26;21.70;99.90
5578;DHT22;2811;51.900;10.734;2023-08-08T13:06:53;21.40;99.90
5578;DHT22;2811;51.900;10.734;2023-08-08T13:09:19;21.10;99.90
5578;DHT22;2811;51.900;10.734;2023-08-08T13:11:46;21.00;99.90
5578;DHT22;2811;51.900;10.734;2023-08-08T13:14:13;21.20;99.90
5578;DHT22;2811;51.900;10.734;2023-08-08T13:16:40;21.40;99.90
5578;DHT22;2811;51.900;10.734;2023-08-08T13:19:06;21.60;99.90
5578;DHT22;2811;51.900;10.734;2023-08-08T13:21:34;21.70;99.90
5578;DHT22;2811;51.900;10.734;2023-08-08T13:24:01;21.40;99.90
5578;DHT22;2811;51.900;10.734;2023-08-08T13:26:28;21.30;99.90
5578;DHT22;2811;51.900;10.734;2023-08-08T13:28:54;21.30;99.90
5578;DHT22;2811;51.900;10.734;2023-08-08T13:31:21;21.10;99.90
5578;DHT22;2811;51.900;10.734;2023-08-08T13:33:48;21.20;99.90
5578;DHT22;2811;51.900;10.734;2023-08-08T13:36:15;21.20;99.90
5578;DHT22;2811;51.900;10.734;2023-08-08T13:38:43;21.30;99.90
5578;DHT22;2811;51.900;10.734;2023-08-08T13:41:09;21.80;99.90
5578;DHT22;2811;51.900;10.734;2023-08-08T13:43:36;22.20;99.90
5578;DHT22;2811;51.900;10.734;2023-08-08T13:46:03;22.20;99.90
5578;DHT22;2811;51.900;10.734;2023-08-08T13:48:33;22.30;99.40
5578;DHT22;2811;51.900;10.734;2023-08-08T13:50:59;22.40;99.90
5578;DHT22;2811;51.900;10.734;2023-08-08T13:53:26;22.50;99.60
5578;DHT22;2811;51.900;10.734;2023-08-08T13:55:55;22.80;99.90
5578;DHT22;2811;51.900;10.734;2023-08-08T13:58:21;22.60;99.00
5578;DHT22;2811;51.900;10.734;2023-08-08T14:00:48;22.00;99.20
5578;DHT22;2811;51.900;10.734;2023-08-08T14:03:15;22.00;99.90
5578;DHT22;2811;51.900;10.734;2023-08-08T14:05:41;22.20;99.10
5578;DHT22;2811;51.900;10.734;2023-08-08T14:08:08;22.10;98.70
5578;DHT22;2811;51.900;10.734;2023-08-08T14:10:35;21.80;99.20
5578;DHT22;2811;51.900;10.734;2023-08-08T14:13:03;21.60;99.70
5578;DHT22;2811;51.900;10.734;2023-08-08T14:15:30;21.70;99.90
5578;DHT22;2811;51.900;10.734;2023-08-08T14:17:58;21.50;99.90
5578;DHT22;2811;51.900;10.734;2023-08-08T14:20:25;21.30;99.90
5578;DHT22;2811;51.900;10.734;2023-08-08T14:22:52;21.60;99.90
5578;DHT22;2811;51.900;10.734;2023-08-08T14:25:19;21.70;99.90
5578;DHT22;2811;51.900;10.734;2023-08-08T14:27:46;21.80;99.90
5578;DHT22;2811;51.900;10.734;2023-08-08T14:30:14;21.50;99.80
5578;DHT22;2811;51.900;10.734;2023-08-08T14:32:41;21.30;99.90
5578;DHT22;2811;51.900;10.734;2023-08-08T14:35:08;21.10;99.90
5578;DHT22;2811;51.900;10.734;2023-08-08T14:37:35;20.90;99.90
5578;DHT22;2811;51.900;10.734;2023-08-08T14:40:03;20.90;99.90
5578;DHT22;2811;51.900;10.734;2023-08-08T14:42:29;21.00;99.90
5578;DHT22;2811;51.900;10.734;2023-08-08T14:44:56;21.40;99.90
5578;DHT22;2811;51.900;10.734;2023-08-08T14:47:24;21.70;99.90
5578;DHT22;2811;51.900;10.734;2023-08-08T14:49:51;21.80;99.90
5578;DHT22;2811;51.900;10.734;2023-08-08T14:52:17;21.90;99.70
5578;DHT22;2811;51.900;10.734;2023-08-08T14:54:44;21.80;99.80
5578;DHT22;2811;51.900;10.734;2023-08-08T14:57:11;21.60;99.70
5578;DHT22;2811;51.900;10.734;2023-08-08T14:59:37;21.60;99.90
5578;DHT22;2811;51.900;10.734;2023-08-08T15:02:04;21.50;99.90
5578;DHT22;2811;51.900;10.734;2023-08-08T15:04:32;21.80;99.90
5578;DHT22;2811;51.900;10.734;2023-08-08T15:06:59;22.00;99.90
5578;DHT22;2811;51.900;10.734;2023-08-08T15:09:26;22.30;99.90
5578;DHT22;2811;51.900;10.734;2023-08-08T15:11:53;22.50;99.90
5578;DHT22;2811;51.900;10.734;2023-08-08T15:14:20;22.10;99.00
5578;DHT22;2811;51.900;10.734;2023-08-08T15:16:49;21.40;99.80
5578;DHT22;2811;51.900;10.734;2023-08-08T15:19:16;21.00;99.90
5578;DHT22;2811;51.900;10.734;2023-08-08T15:21:44;20.80;99.90
5578;DHT22;2811;51.900;10.734;2023-08-08T15:24:11;20.80;99.90
5578;DHT22;2811;51.900;10.734;2023-08-08T15:26:37;20.90;99.90
5578;DHT22;2811;51.900;10.734;2023-08-08T15:29:04;21.20;99.90
5578;DHT22;2811;51.900;10.734;2023-08-08T15:31:31;21.10;99.90
5578;DHT22;2811;51.900;10.734;2023-08-08T15:33:58;20.90;99.90
5578;DHT22;2811;51.900;10.734;2023-08-08T15:36:25;20.90;99.90
5578;DHT22;2811;51.900;10.734;2023-08-08T15:38:53;21.20;99.90
5578;DHT22;2811;51.900;10.734;2023-08-08T15:41:20;21.30;99.90
5578;DHT22;2811;51.900;10.734;2023-08-08T15:43:47;21.20;99.90
5578;DHT22;2811;51.900;10.734;2023-08-08T15:46:13;21.20;99.90